createdAt,value
2022-08-23T00:01:24.435Z,98999.13
2022-08-23T00:03:53.404Z,98998.84
2022-08-23T00:06:22.792Z,98995.13
2022-08-23T00:08:51.317Z,98999.91
2022-08-23T00:11:34.592Z,99001.38
2022-08-23T00:14:08.558Z,99004.56
2022-08-23T00:16:37.721Z,99004.91
2022-08-23T00:19:06.510Z,99014.53
2022-08-23T00:21:35.707Z,99018.38
2022-08-23T00:24:03.154Z,99015.66
2022-08-23T00:26:54.517Z,99010.63
2022-08-23T00:29:28.430Z,99012.09
2022-08-23T00:31:55.292Z,98999.53
2022-08-23T00:34:22.068Z,98990.94
2022-08-23T00:36:50.018Z,98983.69
2022-08-23T00:39:19.828Z,98991.47
2022-08-23T00:41:48.079Z,98985.31
2022-08-23T00:44:42.413Z,98984.50
2022-08-23T00:47:31.882Z,98978.13
2022-08-23T00:50:23.562Z,98972.69
2022-08-23T00:53:12.990Z,98989.44
2022-08-23T00:55:42.509Z,98986.72
2022-08-23T00:58:09.537Z,98991.03
2022-08-23T01:00:36.374Z,98998.75
2022-08-23T01:03:07.500Z,99001.31
2022-08-23T01:05:56.839Z,99006.50
2022-08-23T01:08:26.373Z,99013.59
2022-08-23T01:11:08.888Z,99016.50
2022-08-23T01:13:58.717Z,99012.66
2022-08-23T01:16:33.751Z,99015.19
2022-08-23T01:19:03.086Z,99019.69
2022-08-23T01:21:50.050Z,99010.91
2022-08-23T01:25:06.471Z,99002.28
2022-08-23T01:27:06.863Z,98991.69
2022-08-23T01:29:33.627Z,98990.88
2022-08-23T01:32:01.049Z,98989.47
2022-08-23T01:34:29.421Z,98986.94
2022-08-23T01:37:02.216Z,98982.59
2022-08-23T01:39:28.830Z,98984.22
2022-08-23T01:41:55.538Z,98985.34
2022-08-23T01:44:22.321Z,98991.00
2022-08-23T01:46:57.996Z,98996.78
2022-08-23T01:49:25.917Z,98998.13
2022-08-23T01:51:52.638Z,99005.53
2022-08-23T01:54:19.319Z,99012.47
2022-08-23T01:56:46.079Z,99009.75
2022-08-23T01:59:13.736Z,99000.56
2022-08-23T02:01:40.529Z,99012.25
2022-08-23T02:04:07.596Z,99007.50
2022-08-23T02:06:34.266Z,99013.28
2022-08-23T02:09:01.155Z,99015.69
2022-08-23T02:11:37.041Z,99020.97
2022-08-23T02:14:18.451Z,99017.78
2022-08-23T02:17:03.045Z,99028.00
2022-08-23T02:19:35.342Z,99012.97
2022-08-23T02:22:03.546Z,99012.31
2022-08-23T02:24:31.772Z,99013.31
2022-08-23T02:27:02.235Z,99023.22
2022-08-23T02:29:29.942Z,99016.50
2022-08-23T02:32:00.137Z,99021.63
2022-08-23T02:34:27.857Z,99025.63
2022-08-23T02:36:54.949Z,99015.88
2022-08-23T02:39:22.426Z,99023.22
2022-08-23T02:41:49.892Z,99030.25
2022-08-23T02:44:18.863Z,99030.25
2022-08-23T02:46:50.206Z,99037.94
2022-08-23T02:49:20.266Z,99031.56
2022-08-23T02:51:46.917Z,99035.09
2022-08-23T02:54:13.862Z,99031.44
2022-08-23T02:56:40.596Z,99016.06
2022-08-23T02:59:07.700Z,99010.47
2022-08-23T03:01:37.784Z,99008.22
2022-08-23T03:04:08.244Z,99012.72
2022-08-23T03:06:35.186Z,99013.03
2022-08-23T03:09:02.472Z,99018.63
2022-08-23T03:11:29.449Z,99017.50
2022-08-23T03:13:58.810Z,99022.94
2022-08-23T03:16:25.667Z,99017.50
2022-08-23T03:18:52.728Z,99022.00
2022-08-23T03:21:21.623Z,99029.84
2022-08-23T03:23:48.738Z,99031.44
2022-08-23T03:26:16.504Z,99022.78
2022-08-23T03:28:44.517Z,99026.31
2022-08-23T03:31:12.401Z,99025.50
2022-08-23T03:33:40.026Z,99027.75
2022-08-23T03:36:10.044Z,99033.81
2022-08-23T03:38:38.665Z,99031.28
2022-08-23T03:41:06.635Z,99028.09
2022-08-23T03:43:34.723Z,99020.75
2022-08-23T03:46:02.888Z,99034.97
2022-08-23T03:48:29.657Z,99027.13
2022-08-23T03:50:56.401Z,99029.38
2022-08-23T03:53:24.362Z,99029.38
2022-08-23T03:55:54.713Z,99033.22
2022-08-23T03:58:21.863Z,99026.19
2022-08-23T04:00:49.067Z,99036.09
2022-08-23T04:03:16.252Z,99028.59
2022-08-23T04:05:43.711Z,99029.72
2022-08-23T04:08:11.884Z,99031.47
2022-08-23T04:10:39.330Z,99037.88
2022-08-23T04:13:10.455Z,99045.69
2022-08-23T04:15:37.332Z,99036.44
2022-08-23T04:18:06.552Z,99039.63
2022-08-23T04:20:36.552Z,99036.44
2022-08-23T04:23:03.356Z,99031.00
2022-08-23T04:25:34.480Z,99027.97
2022-08-23T04:28:03.074Z,99022.53
2022-08-23T04:30:30.403Z,99028.75
2022-08-23T04:32:57.461Z,99023.81
2022-08-23T04:35:25.633Z,99027.31
2022-08-23T04:37:53.421Z,99016.63
2022-08-23T04:40:38.460Z,99015.94
2022-08-23T04:43:05.111Z,99016.63
2022-08-23T04:45:32.817Z,99009.72
2022-08-23T04:48:00.557Z,99016.59
2022-08-23T04:50:27.565Z,99013.41
2022-08-23T04:52:54.205Z,99011.16
2022-08-23T04:55:20.845Z,99011.16
2022-08-23T04:57:47.622Z,99009.56
2022-08-23T05:00:15.427Z,99014.50
2022-08-23T05:02:42.187Z,99011.31
2022-08-23T05:05:11.275Z,99013.41
2022-08-23T05:07:41.811Z,99007.97
2022-08-23T05:10:13.468Z,99011.94
2022-08-23T05:12:40.920Z,99007.44
2022-08-23T05:15:12.152Z,99013.84
2022-08-23T05:17:39.150Z,99018.78
2022-08-23T05:20:08.285Z,99017.50
2022-08-23T05:22:37.624Z,99020.84
2022-08-23T05:25:04.847Z,99026.28
2022-08-23T05:27:31.732Z,99019.06
2022-08-23T05:29:58.520Z,99013.31
2022-08-23T05:32:26.057Z,99004.00
2022-08-23T05:34:53.640Z,99000.47
2022-08-23T05:37:20.391Z,98989.03
2022-08-23T05:39:47.042Z,98978.47
2022-08-23T05:42:16.452Z,98966.38
2022-08-23T05:44:45.087Z,98964.44
2022-08-23T05:47:15.127Z,98951.09
2022-08-23T05:49:42.907Z,98943.19
2022-08-23T05:52:14.167Z,98925.53
2022-08-23T05:54:41.247Z,98926.72
2022-08-23T05:57:08.116Z,98923.81
2022-08-23T05:59:34.755Z,98909.06
2022-08-23T06:02:02.068Z,98904.53
2022-08-23T06:04:28.848Z,98898.09
2022-08-23T06:06:58.922Z,98881.78
2022-08-23T06:09:26.492Z,98886.28
2022-08-23T06:11:53.352Z,98882.66
2022-08-23T06:14:20.232Z,98876.78
2022-08-23T06:16:52.558Z,98871.69
2022-08-23T06:19:20.971Z,98871.81
2022-08-23T06:21:48.576Z,98857.50
2022-08-23T06:24:15.319Z,98850.50
2022-08-23T06:26:45.257Z,98856.41
2022-08-23T06:29:15.614Z,98860.59
2022-08-23T06:31:48.125Z,98856.94
2022-08-23T06:34:22.888Z,98855.69
2022-08-23T06:36:52.890Z,98861.47
2022-08-23T06:39:21.518Z,98860.00
2022-08-23T06:41:48.757Z,98855.44
2022-08-23T06:44:17.033Z,98848.59
2022-08-23T06:46:44.616Z,98856.78
2022-08-23T06:49:11.463Z,98854.69
2022-08-23T06:51:44.347Z,98858.53
2022-08-23T06:54:14.660Z,98859.22
2022-08-23T06:56:43.312Z,98826.56
2022-08-23T06:59:10.227Z,98786.50
2022-08-23T07:01:45.755Z,98787.25
2022-08-23T07:04:15.669Z,98764.63
2022-08-23T07:06:42.728Z,98748.03
2022-08-23T07:09:09.371Z,98753.69
2022-08-23T07:11:36.855Z,98736.09
2022-08-23T07:14:07.115Z,98735.13
2022-08-23T07:16:44.569Z,98809.78
2022-08-23T07:19:12.717Z,98828.00
2022-08-23T07:21:41.926Z,98826.78
2022-08-23T07:24:09.396Z,98825.56
2022-08-23T07:26:36.587Z,98834.00
2022-08-23T07:29:06.740Z,98832.16
2022-08-23T07:31:38.260Z,98824.88
2022-08-23T07:34:06.417Z,98852.78
2022-08-23T07:36:33.955Z,98844.53
2022-08-23T07:39:01.166Z,98847.03
2022-08-23T07:41:32.728Z,98834.13
2022-08-23T07:44:04.644Z,98844.34
2022-08-23T07:46:33.511Z,98846.13
2022-08-23T07:49:04.173Z,98846.16
2022-08-23T07:51:32.612Z,98861.38
2022-08-23T07:54:01.956Z,98863.19
2022-08-23T07:56:29.151Z,98863.91
2022-08-23T07:58:56.134Z,98866.81
2022-08-23T08:01:26.310Z,98861.75
2022-08-23T08:03:55.512Z,98892.34
2022-08-23T08:06:28.497Z,98904.75
2022-08-23T08:08:55.776Z,98927.03
2022-08-23T08:11:30.882Z,98936.59
2022-08-23T08:14:05.082Z,98937.34
2022-08-23T08:16:36.984Z,98992.09
2022-08-23T08:19:07.772Z,98992.63
2022-08-23T08:21:36.248Z,99026.44
2022-08-23T08:24:09.256Z,99033.59
2022-08-23T08:26:36.675Z,99029.03
2022-08-23T08:29:04.632Z,99090.16
2022-08-23T08:31:31.649Z,99089.69
2022-08-23T08:34:00.980Z,99106.91
2022-08-23T08:36:35.475Z,99096.78
2022-08-23T08:39:06.000Z,99088.38
2022-08-23T08:41:39.198Z,99076.47
2022-08-23T08:44:34.608Z,99074.50
2022-08-23T08:47:08.449Z,99095.00
2022-08-23T08:50:02.959Z,99116.50
2022-08-23T08:52:38.133Z,99151.97
2022-08-23T08:55:14.155Z,99178.09
2022-08-23T08:57:44.848Z,99207.91
2022-08-23T09:00:15.460Z,99220.50
2022-08-23T09:02:43.266Z,99217.72
2022-08-23T09:05:14.469Z,99231.88
2022-08-23T09:08:02.116Z,99229.88
2022-08-23T09:10:43.210Z,99241.75
2022-08-23T09:13:22.060Z,99248.91
2022-08-23T09:15:49.737Z,99233.50
2022-08-23T09:18:17.094Z,99250.75
2022-08-23T09:20:49.528Z,99249.44
2022-08-23T09:23:23.651Z,99266.53
2022-08-23T09:26:03.835Z,99272.69
2022-08-23T09:28:34.824Z,99282.78
2022-08-23T09:31:02.677Z,99315.94
2022-08-23T09:33:46.049Z,99322.13
2022-08-23T09:36:22.482Z,99313.09
2022-08-23T09:38:55.140Z,99317.97
2022-08-23T09:41:43.621Z,99339.22
2022-08-23T09:44:13.923Z,99326.91
2022-08-23T09:46:44.741Z,99348.72
2022-08-23T09:49:30.094Z,99381.34
2022-08-23T09:52:00.712Z,99375.31
2022-08-23T09:54:32.269Z,99382.00
2022-08-23T09:57:02.724Z,99412.75
2022-08-23T09:59:39.886Z,99417.19
2022-08-23T10:02:16.062Z,99417.00
2022-08-23T10:04:57.738Z,99439.13
2022-08-23T10:07:35.936Z,99464.06
2022-08-23T10:10:36.351Z,99465.91
2022-08-23T10:13:05.227Z,99470.06
2022-08-23T10:15:49.551Z,99512.13
2022-08-23T10:18:44.027Z,99501.66
2022-08-23T10:21:23.777Z,99496.91
2022-08-23T10:24:11.616Z,99505.34
2022-08-23T10:26:51.205Z,99541.03
2022-08-23T10:29:39.243Z,99558.59
2022-08-23T10:32:24.197Z,99577.66
2022-08-23T10:35:25.492Z,99573.81
2022-08-23T10:38:17.664Z,99577.03
2022-08-23T10:41:00.131Z,99591.63
2022-08-23T10:43:38.837Z,99598.38
2022-08-23T10:46:07.687Z,99606.72
2022-08-23T10:48:42.047Z,99621.47
2022-08-23T10:51:21.276Z,99622.94
2022-08-23T10:54:01.693Z,99613.13
2022-08-23T10:56:29.244Z,99619.22
2022-08-23T10:59:03.428Z,99624.38
2022-08-23T11:01:57.405Z,99631.91
2022-08-23T11:04:38.504Z,99627.22
2022-08-23T11:07:19.604Z,99635.91
2022-08-23T11:10:09.902Z,99636.63
2022-08-23T11:13:03.981Z,99632.63
2022-08-23T11:15:44.989Z,99623.72
2022-08-23T11:18:33.643Z,99624.47
2022-08-23T11:21:26.327Z,99627.28
2022-08-23T11:23:54.541Z,99617.41
2022-08-23T11:26:26.924Z,99613.41
2022-08-23T11:28:55.925Z,99612.63
2022-08-23T11:31:44.973Z,99613.38
2022-08-23T11:34:23.090Z,99608.59
2022-08-23T11:37:27.259Z,99611.00
2022-08-23T11:39:57.687Z,99619.59
2022-08-23T11:42:44.153Z,99615.63
2022-08-23T11:45:42.724Z,99572.28
2022-08-23T11:48:43.526Z,99571.44
2022-08-23T11:51:34.693Z,99566.22
2022-08-23T11:54:27.513Z,99587.63
2022-08-23T11:57:23.723Z,99598.03
2022-08-23T12:00:09.099Z,99604.09
2022-08-23T12:02:38.602Z,99626.72
2022-08-23T12:05:23.607Z,99637.09
2022-08-23T12:07:53.243Z,99636.38
2022-08-23T12:10:43.105Z,99649.97
2022-08-23T12:13:19.577Z,99661.09
2022-08-23T12:16:06.556Z,99676.13
2022-08-23T12:18:36.792Z,99681.38
2022-08-23T12:21:09.039Z,99687.41
2022-08-23T12:23:55.269Z,99699.28
2022-08-23T12:26:43.101Z,99695.34
2022-08-23T12:29:19.878Z,99700.06
2022-08-23T12:31:55.439Z,99700.88
2022-08-23T12:35:00.272Z,99713.13
2022-08-23T12:37:45.271Z,99715.56
2022-08-23T12:40:26.103Z,99713.63
2022-08-23T12:43:03.721Z,99723.97
2022-08-23T12:45:56.849Z,99718.50
2022-08-23T12:48:31.495Z,99724.03
2022-08-23T12:51:03.111Z,99731.50
2022-08-23T12:53:38.524Z,99733.50
2022-08-23T12:56:32.098Z,99740.19
2022-08-23T12:59:05.055Z,99750.91
2022-08-23T13:01:35.847Z,99754.19
2022-08-23T13:04:11.107Z,99757.00
2022-08-23T13:06:51.645Z,99766.88
2022-08-23T13:09:33.202Z,99773.22
2022-08-23T13:12:00.684Z,99768.69
2022-08-23T13:14:33.474Z,99771.78
2022-08-23T13:17:18.023Z,99776.94
2022-08-23T13:19:47.105Z,99782.06
2022-08-23T13:22:22.374Z,99786.72
2022-08-23T13:27:58.112Z,99786.72
2022-08-23T13:30:36.353Z,99789.03
2022-08-23T13:33:07.722Z,99780.38
2022-08-23T13:35:36.238Z,99782.84
2022-08-23T13:38:21.369Z,99801.41
2022-08-23T13:41:00.200Z,99805.75
2022-08-23T13:43:35.993Z,99814.75
2022-08-23T13:46:11.561Z,99820.63
2022-08-23T13:48:47.521Z,99817.50
2022-08-23T13:51:30.106Z,99815.81
2022-08-23T13:54:00.692Z,99812.63
2022-08-23T13:56:29.717Z,99809.44
2022-08-23T13:59:01.448Z,99811.00
2022-08-23T14:01:29.290Z,99804.59
2022-08-23T14:03:56.641Z,99801.41
2022-08-23T14:06:24.093Z,99797.53
2022-08-23T14:08:51.080Z,99808.19
2022-08-23T14:11:18.239Z,99811.72
2022-08-23T14:13:47.535Z,99816.84
2022-08-23T14:16:39.428Z,99820.31
2022-08-23T14:19:19.194Z,99814.72
2022-08-23T14:21:56.720Z,99811.59
2022-08-23T14:24:23.514Z,99821.44
2022-08-23T14:26:52.500Z,99828.16
2022-08-23T14:29:22.261Z,99830.50
2022-08-23T14:31:51.320Z,99831.38
2022-08-23T14:34:18.208Z,99821.97
2022-08-23T14:38:00.242Z,99823.13
2022-08-23T14:39:31.612Z,99826.75
2022-08-23T14:41:58.479Z,99815.28
2022-08-23T14:44:28.994Z,99819.94
2022-08-23T14:47:00.172Z,99817.88
2022-08-23T14:49:27.629Z,99815.53
2022-08-23T14:51:54.386Z,99831.44
2022-08-23T14:54:25.036Z,99833.44
2022-08-23T14:56:53.352Z,99835.78
2022-08-23T14:59:20.545Z,99829.41
2022-08-23T15:01:49.480Z,99829.88
2022-08-23T15:04:18.840Z,99828.75
2022-08-23T15:07:06.853Z,99832.72
2022-08-23T15:09:33.679Z,99826.00
2022-08-23T15:14:49.548Z,99825.22
2022-08-23T15:17:16.460Z,99817.34
2022-08-23T15:19:43.160Z,99821.28
2022-08-23T15:22:18.658Z,99820.53
2022-08-23T15:24:49.584Z,99813.38
2022-08-23T15:27:17.928Z,99817.38
2022-08-23T15:29:44.581Z,99809.06
2022-08-23T15:32:12.700Z,99799.97
2022-08-23T15:34:46.248Z,99799.88
2022-08-23T15:37:13.993Z,99824.03
2022-08-23T15:39:42.328Z,99820.38
2022-08-23T15:42:09.272Z,99824.22
2022-08-23T15:44:35.914Z,99829.75
2022-08-23T15:47:04.920Z,99820.56
2022-08-23T15:49:36.565Z,99814.56
2022-08-23T15:52:06.728Z,99805.00
2022-08-23T15:54:33.337Z,99809.84
2022-08-23T15:57:00.143Z,99791.25
2022-08-23T15:59:26.972Z,99769.88
2022-08-23T16:01:53.680Z,99769.47
2022-08-23T16:04:20.676Z,99759.16
2022-08-23T16:06:48.210Z,99753.53
2022-08-23T16:09:21.235Z,99735.78
2022-08-23T16:11:48.444Z,99733.44
2022-08-23T16:14:15.567Z,99719.13
2022-08-23T16:16:46.594Z,99713.97
2022-08-23T16:19:14.905Z,99706.91
2022-08-23T16:21:44.187Z,99705.34
2022-08-23T16:24:10.888Z,99710.13
2022-08-23T16:26:41.868Z,99701.41
2022-08-23T16:29:11.159Z,99683.22
2022-08-23T16:31:39.951Z,99644.44
2022-08-23T16:34:13.515Z,99632.53
2022-08-23T16:36:43.642Z,99634.97
2022-08-23T16:39:10.914Z,99638.06
2022-08-23T16:41:37.571Z,99632.13
2022-08-23T16:44:06.663Z,99624.59
2022-08-23T16:46:34.191Z,99614.59
2022-08-23T16:49:02.437Z,99609.41
2022-08-23T16:51:29.059Z,99595.94
2022-08-23T16:54:02.524Z,99588.81
2022-08-23T16:56:30.507Z,99596.09
2022-08-23T16:58:59.775Z,99591.75
2022-08-23T17:01:29.166Z,99588.56
2022-08-23T17:03:56.044Z,99582.19
2022-08-23T17:06:22.717Z,99576.63
2022-08-23T17:08:49.692Z,99583.69
2022-08-23T17:11:19.270Z,99594.69
2022-08-23T17:13:46.061Z,99598.94
2022-08-23T17:16:12.800Z,99596.06
2022-08-23T17:18:39.684Z,99588.13
2022-08-23T17:21:07.779Z,99587.59
2022-08-23T17:23:39.289Z,99586.19
2022-08-23T17:26:08.458Z,99569.47
2022-08-23T17:28:35.484Z,99572.53
2022-08-23T17:31:02.668Z,99567.00
2022-08-23T17:33:29.371Z,99573.25
2022-08-23T17:35:58.309Z,99560.50
2022-08-23T17:38:27.347Z,99566.75
2022-08-23T17:40:54.980Z,99573.78
2022-08-23T17:43:21.597Z,99572.81
2022-08-23T17:45:52.600Z,99575.78
2022-08-23T17:48:22.037Z,99566.84
2022-08-23T17:50:50.276Z,99550.84
2022-08-23T17:53:18.386Z,99525.38
2022-08-23T17:55:45.148Z,99509.41
2022-08-23T17:58:12.274Z,99496.00
2022-08-23T18:00:39.686Z,99498.31
2022-08-23T18:03:06.947Z,99487.16
2022-08-23T18:05:35.466Z,99481.47
2022-08-23T18:08:02.350Z,99471.47
2022-08-23T18:10:30.267Z,99470.84
2022-08-23T18:12:58.730Z,99456.53
2022-08-23T18:15:28.971Z,99437.47
2022-08-23T18:17:58.342Z,99432.56
2022-08-23T18:20:29.013Z,99415.47
2022-08-23T18:22:57.400Z,99407.72
2022-08-23T18:25:24.648Z,99385.13
2022-08-23T18:28:08.254Z,99302.34
2022-08-23T18:30:38.030Z,99267.97
2022-08-23T18:33:06.529Z,99290.63
2022-08-23T18:35:34.689Z,99299.31
2022-08-23T18:38:01.359Z,99298.16
2022-08-23T18:40:29.512Z,99306.81
2022-08-23T18:42:57.076Z,99307.13
2022-08-23T18:45:24.213Z,99300.13
2022-08-23T18:47:50.988Z,99287.88
2022-08-23T18:50:19.321Z,99276.00
2022-08-23T18:52:46.103Z,99260.22
2022-08-23T18:55:12.821Z,99250.84
2022-08-23T18:57:39.569Z,99215.13
2022-08-23T19:00:09.477Z,99177.88
2022-08-23T19:02:36.137Z,99141.66
2022-08-23T19:05:03.654Z,99143.16
2022-08-23T19:07:31.109Z,99152.72
2022-08-23T19:09:58.071Z,99101.13
2022-08-23T19:12:25.035Z,99104.47
2022-08-23T19:14:51.769Z,99111.28
2022-08-23T19:17:18.533Z,99110.66
2022-08-23T19:19:45.272Z,99065.34
2022-08-23T19:22:12.732Z,99054.94
2022-08-23T19:24:39.700Z,99059.69
2022-08-23T19:27:06.743Z,99058.72
2022-08-23T19:29:33.529Z,99030.31
2022-08-23T19:32:01.037Z,99015.25
2022-08-23T19:34:28.316Z,99028.88
2022-08-23T19:37:00.836Z,99024.19
2022-08-23T19:39:28.877Z,98991.31
2022-08-23T19:41:55.662Z,98994.44
2022-08-23T19:44:22.839Z,99008.75
2022-08-23T19:46:51.202Z,98982.31
2022-08-23T19:49:17.921Z,98967.03
2022-08-23T19:51:44.908Z,98976.03
2022-08-23T19:54:13.197Z,98990.44
2022-08-23T19:56:46.679Z,98969.91
2022-08-23T19:59:20.693Z,98960.75
2022-08-23T20:01:49.810Z,98961.00
2022-08-23T20:04:19.929Z,98979.13
2022-08-23T20:06:48.772Z,98945.41
2022-08-23T20:09:16.339Z,98931.69
2022-08-23T20:11:43.734Z,98940.50
2022-08-23T20:14:11.089Z,98949.31
2022-08-23T20:16:40.625Z,98939.41
2022-08-23T20:19:09.614Z,98935.91
2022-08-23T20:21:36.411Z,98945.25
2022-08-23T20:24:06.060Z,98944.50
2022-08-23T20:26:46.778Z,98930.31
2022-08-23T20:29:19.387Z,98939.19
2022-08-23T20:31:53.398Z,98940.44
2022-08-23T20:34:20.685Z,98903.56
2022-08-23T20:36:47.433Z,98901.69
2022-08-23T20:39:14.548Z,98918.06
2022-08-23T20:41:41.418Z,98898.16
2022-08-23T20:44:09.033Z,98879.81
2022-08-23T20:46:36.031Z,98886.47
2022-08-23T20:49:05.329Z,98890.59
2022-08-23T20:51:36.546Z,98872.44
2022-08-23T20:54:07.521Z,98873.56
2022-08-23T20:56:35.480Z,98889.44
2022-08-23T20:59:02.178Z,98873.59
2022-08-23T21:01:29.164Z,98875.78
2022-08-23T21:03:55.852Z,98874.03
2022-08-23T21:06:36.300Z,98890.41
2022-08-23T21:09:03.313Z,98875.91
2022-08-23T21:11:30.615Z,98866.38
2022-08-23T21:13:58.665Z,98863.09
2022-08-23T21:16:26.152Z,98853.47
2022-08-23T21:18:55.455Z,98843.34
2022-08-23T21:21:23.425Z,98850.81
2022-08-23T21:23:50.263Z,98865.72
2022-08-23T21:26:17.036Z,98857.72
2022-08-23T21:28:43.827Z,98851.78
2022-08-23T21:31:17.374Z,98861.50
2022-08-23T21:33:45.213Z,98875.16
2022-08-23T21:36:13.827Z,98885.25
2022-08-23T21:38:40.727Z,98864.53
2022-08-23T21:41:11.442Z,98869.63
2022-08-23T21:43:39.002Z,98890.47
2022-08-23T21:46:07.340Z,98883.66
2022-08-23T21:48:35.871Z,98879.34
2022-08-23T21:51:03.549Z,98887.75
2022-08-23T21:53:31.125Z,98910.91
2022-08-23T21:55:57.951Z,98885.91
2022-08-23T21:58:24.873Z,98881.16
2022-08-23T22:00:51.603Z,98895.00
2022-08-23T22:03:18.413Z,98903.34
2022-08-23T22:05:48.101Z,98891.28
2022-08-23T22:08:17.146Z,98895.88
2022-08-23T22:10:57.247Z,98889.13
2022-08-23T22:13:28.979Z,98863.34
2022-08-23T22:15:56.369Z,98859.50
2022-08-23T22:18:23.175Z,98867.00
2022-08-23T22:20:49.993Z,98890.66
2022-08-23T22:23:17.304Z,98872.78
2022-08-23T22:25:44.205Z,98868.06
2022-08-23T22:28:10.832Z,98879.03
2022-08-23T22:30:39.363Z,98906.94
2022-08-23T22:33:06.361Z,98865.88
2022-08-23T22:35:35.317Z,98864.34
2022-08-23T22:38:13.819Z,98863.38
2022-08-23T22:40:48.496Z,98887.47
2022-08-23T22:43:15.796Z,98854.47
2022-08-23T22:45:53.679Z,98852.97
2022-08-23T22:48:21.689Z,98834.72
2022-08-23T22:50:49.339Z,98817.66
2022-08-23T22:53:17.776Z,98803.44
2022-08-23T22:55:50.877Z,98815.97
2022-08-23T22:58:18.242Z,98836.88
2022-08-23T23:00:45.406Z,98847.59
2022-08-23T23:03:14.797Z,98838.47
2022-08-23T23:05:41.468Z,98823.50
2022-08-23T23:08:27.022Z,98824.44
2022-08-23T23:11:02.836Z,98793.06
2022-08-23T23:13:31.647Z,98793.72
2022-08-23T23:16:02.228Z,98805.41
2022-08-23T23:18:29.367Z,98763.44
2022-08-23T23:21:02.975Z,98753.97
2022-08-23T23:23:31.332Z,98763.28
2022-08-23T23:25:58.561Z,98743.97
2022-08-23T23:28:25.340Z,98732.78
2022-08-23T23:30:53.843Z,98724.75
2022-08-23T23:33:21.709Z,98702.25
2022-08-23T23:35:49.380Z,98705.31
2022-08-23T23:38:16.739Z,98718.31
2022-08-23T23:40:43.845Z,98713.00
2022-08-23T23:43:13.205Z,98702.16
2022-08-23T23:45:40.995Z,98728.50
2022-08-23T23:48:08.987Z,98707.91
2022-08-23T23:50:36.736Z,98702.38
2022-08-23T23:53:04.444Z,98705.31
2022-08-23T23:55:31.111Z,98692.09
2022-08-23T23:57:58.735Z,98673.75
